Time;durP1;ratioP1;P1;durP2;ratioP2;P2;SDS_P1;SDS_P2;PMS_P1;PMS_P2;Temp;Humidity;BMP_temperature;BMP_pressure;BME280_temperature;BME280_humidity;BME280_pressure;Samples;Min_cycle;Max_cycle;Signal;HPM_P1;HPM_P2
2023/03/16 05:00:47;;;;;;;9.45;4.90;;;;;;;5.93;56.84;100775.38;5620341;31;77590;-55
2023/03/16 05:03:51;;;;;;;11.45;5.40;;;;;;;5.93;56.84;100775.38;5603671;31;34298;-55
2023/03/16 05:06:54;;;;;;;9.38;5.25;;;;;;;5.45;51.71;100781.91;5603618;31;33452;-55
2023/03/16 05:09:57;;;;;;;13.93;5.37;;;;;;;5.52;50.37;100790.56;5603869;31;34770;-55
2023/03/16 05:13:00;;;;;;;9.95;5.95;;;;;;;5.68;63.46;100791.66;5603633;31;33502;-55
2023/03/16 05:16:03;;;;;;;10.95;5.70;;;;;;;5.97;54.50;100798.63;5592445;31;34401;-55
2023/03/16 05:19:06;;;;;;;9.18;5.95;;;;;;;6.02;61.35;100793.37;5583757;31;34460;-56
2023/03/16 05:22:09;;;;;;;9.48;6.18;;;;;;;5.93;48.87;100804.62;5583745;31;34686;-55
2023/03/16 05:25:14;;;;;;;15.57;6.22;;;;;;;5.93;51.61;100802.81;5583774;31;34352;-55
2023/03/16 05:28:17;;;;;;;11.45;5.57;;;;;;;5.86;49.57;100802.09;5583830;31;34319;-55
2023/03/16 05:31:20;;;;;;;12.70;6.40;;;;;;;5.76;53.07;100810.72;5583837;31;34210;-55
2023/03/16 05:34:22;;;;;;;11.93;5.53;;;;;;;5.93;57.62;100808.12;5583728;31;33969;-55
2023/03/16 05:37:25;;;;;;;10.82;5.85;;;;;;;5.90;48.61;100811.25;5583528;32;34552;-55
2023/03/16 05:40:28;;;;;;;12.60;5.60;;;;;;;5.77;50.23;100811.53;5583493;31;34431;-55
2023/03/16 05:43:33;;;;;;;12.30;6.22;;;;;;;5.91;49.42;100818.16;5583594;31;33542;-55
2023/03/16 05:46:36;;;;;;;12.57;5.85;;;;;;;5.74;49.18;100812.81;5583413;31;33833;-56
2023/03/16 05:49:38;;;;;;;15.13;6.45;;;;;;;6.06;59.05;100818.50;5583634;31;33304;-55
2023/03/16 05:52:43;;;;;;;10.50;5.72;;;;;;;6.07;49.95;100817.44;5583575;31;33286;-55
2023/03/16 05:55:53;;;;;;;11.07;6.32;;;;;;;6.08;48.54;100821.69;5583283;31;34461;-55
2023/03/16 05:58:59;;;;;;;10.45;6.00;;;;;;;5.97;51.00;100819.91;5583256;31;33120;-55
2023/03/16 06:02:03;;;;;;;9.93;5.43;;;;;;;5.98;48.37;100826.84;5583231;31;32002;-55
2023/03/16 06:05:06;;;;;;;12.82;6.10;;;;;;;6.22;69.63;100837.37;5582932;31;34575;-55
2023/03/16 06:08:11;;;;;;;15.13;6.65;;;;;;;6.31;49.84;100835.94;5582999;31;33482;-55
2023/03/16 06:11:16;;;;;;;13.68;6.25;;;;;;;6.53;49.43;100844.03;5573923;31;32018;-56
2023/03/16 06:14:20;;;;;;;11.27;6.78;;;;;;;6.63;51.10;100848.72;5570088;31;33919;-56
2023/03/16 06:17:23;;;;;;;13.43;5.78;;;;;;;6.29;55.75;100849.50;5570091;31;34467;-56
2023/03/16 06:20:26;;;;;;;11.65;5.65;;;;;;;6.68;49.58;100846.13;5570037;32;34398;-56
2023/03/16 06:23:29;;;;;;;12.35;5.95;;;;;;;6.94;63.32;100855.31;5569999;31;33593;-55
2023/03/16 06:26:32;;;;;;;8.80;4.93;;;;;;;6.44;52.71;100856.94;5569955;31;34602;-55
2023/03/16 06:29:35;;;;;;;7.20;4.97;;;;;;;6.47;47.75;100866.31;5569942;31;34491;-55
2023/03/16 06:32:40;;;;;;;11.10;5.97;;;;;;;6.23;48.74;100866.44;5568976;32;34424;-55
2023/03/16 06:35:43;;;;;;;9.37;5.20;;;;;;;6.24;47.83;100870.69;5570113;31;34367;-55
2023/03/16 06:38:46;;;;;;;13.93;5.28;;;;;;;6.48;47.56;100876.69;5569258;31;33424;-55
2023/03/16 06:41:49;;;;;;;10.98;5.57;;;;;;;6.46;45.33;100886.81;5568836;32;33550;-55
2023/03/16 06:44:51;;;;;;;12.20;5.20;;;;;;;6.56;46.91;100880.84;5569088;31;33228;-56
2023/03/16 06:47:54;;;;;;;9.82;5.00;;;;;;;6.67;46.74;100887.16;5569111;31;31949;-56
2023/03/16 06:50:56;;;;;;;10.05;5.20;;;;;;;6.94;53.34;100897.97;5568871;31;33711;-55
2023/03/16 06:54:00;;;;;;;10.20;4.97;;;;;;;6.47;44.80;100888.41;5568319;31;34310;-55
2023/03/16 06:57:03;;;;;;;10.63;5.30;;;;;;;6.55;47.46;100901.31;5569075;32;34513;-55
2023/03/16 07:00:08;;;;;;;12.20;5.78;;;;;;;6.65;46.37;100894.56;5569404;32;32372;-56
2023/03/16 07:03:13;;;;;;;9.57;4.85;;;;;;;6.76;59.20;100907.03;5569123;32;34370;-55
2023/03/16 07:06:18;;;;;;;9.73;5.40;;;;;;;7.12;46.24;100905.72;5569452;32;33641;-55
2023/03/16 07:09:22;;;;;;;11.68;5.30;;;;;;;7.05;46.38;100910.38;5568399;32;33671;-55
2023/03/16 07:12:26;;;;;;;11.43;4.68;;;;;;;6.74;46.85;100914.44;5567236;32;33560;-55
2023/03/16 07:15:30;;;;;;;7.87;5.10;;;;;;;6.73;46.29;100916.28;5558829;32;32304;-55
2023/03/16 07:18:36;;;;;;;9.63;4.97;;;;;;;6.80;43.57;100924.13;5567683;32;32942;-55
2023/03/16 07:21:44;;;;;;;8.70;4.80;;;;;;;6.83;50.36;100921.78;5566317;31;33571;-55
2023/03/16 07:24:56;;;;;;;8.88;4.82;;;;;;;7.27;45.72;100916.59;5568805;31;32060;-55
2023/03/16 07:28:02;;;;;;;11.05;5.15;;;;;;;6.94;43.87;100928.09;5568795;32;32299;-55
2023/03/16 07:31:09;;;;;;;7.87;4.50;;;;;;;6.91;44.63;100935.75;5565904;31;32371;-55
2023/03/16 07:34:14;;;;;;;;;;;;;;;6.96;43.40;100939.31;5568883;32;33073;-57
2023/03/16 07:37:19;;;;;;;9.45;5.03;;;;;;;7.11;43.82;100943.28;5568010;31;32315;-57
2023/03/16 07:40:33;;;;;;;9.63;5.20;;;;;;;6.98;42.87;100945.19;5568816;32;32051;-55
2023/03/16 07:43:40;;;;;;;8.02;5.00;;;;;;;6.91;43.59;100941.91;5567152;32;32291;-55
2023/03/16 07:46:44;;;;;;;10.13;4.55;;;;;;;7.14;57.31;100940.94;5567689;32;33440;-55
2023/03/16 07:49:49;;;;;;;8.52;4.50;;;;;;;7.43;44.15;100938.97;5568600;32;31843;-55
2023/03/16 07:52:53;;;;;;;10.50;4.85;;;;;;;7.11;42.48;100945.94;5568561;31;31954;-55
2023/03/16 07:55:58;;;;;;;9.77;4.60;;;;;;;7.21;51.00;100938.09;5569078;32;33024;-55
2023/03/16 07:59:05;;;;;;;;;;;;;;;7.20;45.84;100944.50;5568957;31;34340;-56
2023/03/16 08:02:16;;;;;;;9.75;4.93;;;;;;;7.61;54.13;100942.41;5567604;32;34079;-55
2023/03/16 08:05:22;;;;;;;10.80;5.55;;;;;;;7.47;44.52;100948.09;5568063;32;33823;-55
2023/03/16 08:08:32;;;;;;;12.00;4.97;;;;;;;7.92;50.24;100949.75;5565554;31;32060;-55
2023/03/16 08:11:37;;;;;;;7.20;4.78;;;;;;;7.86;41.62;100952.59;5566106;32;31768;-55
2023/03/16 08:14:44;;;;;;;9.30;4.78;;;;;;;7.52;41.73;100956.16;5566525;32;33638;-55
2023/03/16 08:17:51;;;;;;;10.13;5.05;;;;;;;7.51;41.69;100956.41;5568161;32;33292;-55
2023/03/16 08:20:57;;;;;;;9.05;5.03;;;;;;;7.37;43.43;100968.47;5567995;31;32160;-57
2023/03/16 08:24:01;;;;;;;9.02;4.90;;;;;;;7.45;43.91;100966.22;5567221;32;33644;-55
2023/03/16 08:27:05;;;;;;;8.65;4.95;;;;;;;7.67;47.89;100976.09;5568607;32;33814;-55
2023/03/16 08:30:14;;;;;;;9.80;5.07;;;;;;;8.02;46.03;100978.44;5567395;32;32173;-55
2023/03/16 08:33:26;;;;;;;9.10;4.75;;;;;;;8.21;46.32;100973.56;5566551;32;32227;-55
2023/03/16 08:36:35;;;;;;;8.25;5.18;;;;;;;8.75;66.95;100980.88;5567982;32;33186;-56
2023/03/16 08:39:41;;;;;;;9.25;5.10;;;;;;;9.04;47.94;100978.69;5566827;32;33668;-55
2023/03/16 08:42:45;;;;;;;10.70;5.75;;;;;;;8.41;42.10;100981.03;5560333;31;32776;-55
2023/03/16 08:45:49;;;;;;;10.48;5.10;;;;;;;8.31;43.03;100970.22;5568313;31;32065;-56
2023/03/16 08:48:55;;;;;;;9.93;5.57;;;;;;;8.13;42.96;100971.34;5554638;32;32603;-56
2023/03/16 08:52:00;;;;;;;11.35;5.28;;;;;;;8.28;42.24;100974.22;5566747;31;31999;-55
2023/03/16 08:55:05;;;;;;;9.25;4.82;;;;;;;8.16;41.54;100968.19;5565346;32;34183;-56
2023/03/16 08:58:10;;;;;;;11.48;5.45;;;;;;;8.32;42.14;100980.66;5567284;32;34454;-56
2023/03/16 09:01:16;;;;;;;10.15;5.53;;;;;;;8.34;42.71;100985.75;5567987;32;34352;-55
2023/03/16 09:04:20;;;;;;;9.13;5.30;;;;;;;8.17;41.87;100986.63;5562500;32;34323;-55
2023/03/16 09:07:23;;;;;;;11.15;5.45;;;;;;;8.34;41.76;100989.22;5568009;32;33667;-56
2023/03/16 09:10:31;;;;;;;7.72;5.50;;;;;;;8.86;60.13;100988.72;5567322;32;33742;-56
2023/03/16 09:13:37;;;;;;;9.68;5.53;;;;;;;8.96;45.36;100987.19;5567911;32;34116;-55
2023/03/16 09:16:40;;;;;;;10.00;4.90;;;;;;;9.07;49.65;100999.59;5567484;32;34443;-56
2023/03/16 09:19:46;;;;;;;11.05;5.55;;;;;;;8.59;40.83;100995.94;5567017;32;33703;-55
2023/03/16 09:22:54;;;;;;;10.32;6.20;;;;;;;8.29;45.08;101005.19;5566864;32;33573;-56
2023/03/16 09:26:04;;;;;;;9.40;5.60;;;;;;;8.59;41.41;100987.91;5566727;32;33770;-56
2023/03/16 09:29:07;;;;;;;8.15;4.87;;;;;;;8.86;46.21;100991.38;5565595;32;34363;-55
2023/03/16 09:32:10;;;;;;;7.87;4.85;;;;;;;8.59;42.36;100994.06;5567763;32;34323;-55
2023/03/16 09:35:13;;;;;;;11.10;5.50;;;;;;;8.38;39.26;101002.94;5567627;32;34359;-55
2023/03/16 09:38:18;;;;;;;9.05;5.22;;;;;;;8.87;46.46;101003.72;5566783;32;34246;-55
2023/03/16 09:41:46;;;;;;;12.95;5.18;;;;;;;9.22;56.91;101012.28;5564456;32;33589;-56
2023/03/16 09:44:54;;;;;;;9.23;5.22;;;;;;;9.29;56.46;101013.69;5565911;32;34254;-56
2023/03/16 09:48:02;;;;;;;9.20;5.00;;;;;;;9.40;40.38;101010.03;5550715;32;33317;-56
2023/03/16 09:51:13;;;;;;;9.48;5.10;;;;;;;9.49;44.17;101010.34;5563007;32;33675;-56
2023/03/16 09:55:11;;;;;;;10.45;5.12;;;;;;;8.98;42.12;101004.59;5569248;32;33645;-56
2023/03/16 09:58:20;;;;;;;8.52;5.05;;;;;;;8.96;40.20;101009.41;5525664;32;34260;-56
2023/03/16 10:01:41;;;;;;;8.52;5.65;;;;;;;8.93;41.44;101010.69;5569460;32;33812;-56
2023/03/16 10:04:53;;;;;;;9.73;5.70;;;;;;;9.02;48.07;101005.72;5584510;31;33596;-55
2023/03/16 10:07:55;;;;;;;9.02;5.30;;;;;;;9.48;47.26;101006.06;5589501;31;34357;-56
2023/03/16 10:11:04;;;;;;;10.95;5.87;;;;;;;9.16;39.88;101014.91;5589212;31;33810;-56
2023/03/16 10:14:16;;;;;;;11.38;5.43;;;;;;;9.23;48.01;101008.56;5589160;31;34402;-55
2023/03/16 10:17:37;;;;;;;8.85;4.95;;;;;;;9.10;40.86;101010.59;5589105;31;33726;-56
2023/03/16 10:20:41;;;;;;;10.25;4.87;;;;;;;9.22;40.42;101013.09;5589299;31;33375;-56
2023/03/16 10:23:47;;;;;;;9.60;5.25;;;;;;;9.02;39.48;101013.72;5589464;31;34228;-56
2023/03/16 10:26:58;;;;;;;9.10;5.30;;;;;;;9.22;51.10;101013.09;5589290;31;34361;-56
2023/03/16 10:30:09;;;;;;;6.03;4.32;;;;;;;10.03;70.58;101014.69;5588963;31;33667;-56
2023/03/16 10:33:33;;;;;;;5.03;3.80;;;;;;;9.95;39.00;101015.19;5589278;31;33384;-56
2023/03/16 10:36:40;;;;;;;8.23;3.90;;;;;;;9.54;35.99;101009.59;5589283;31;33792;-56
2023/03/16 10:39:43;;;;;;;5.12;3.90;;;;;;;9.59;57.54;101015.78;5589382;31;33781;-56
2023/03/16 10:42:46;;;;;;;6.90;4.45;;;;;;;9.86;50.26;101012.19;5588779;31;33609;-56
2023/03/16 10:45:48;;;;;;;6.82;3.97;;;;;;;10.13;37.10;101017.41;5588994;31;33696;-56
2023/03/16 10:48:58;;;;;;;6.78;4.28;;;;;;;10.13;36.16;101006.69;5588939;31;34402;-56
2023/03/16 10:52:07;;;;;;;6.05;3.30;;;;;;;9.96;40.07;101014.09;5588962;31;33656;-56
2023/03/16 10:55:23;;;;;;;6.10;3.28;;;;;;;10.29;43.27;101007.59;5588375;31;33629;-56
2023/03/16 10:58:29;;;;;;;5.70;3.27;;;;;;;10.56;54.14;101010.91;5588625;31;33728;-56
2023/03/16 11:01:32;;;;;;;8.00;3.65;;;;;;;10.43;39.53;101006.03;5588861;31;33689;-56
2023/03/16 11:04:36;;;;;;;8.13;3.70;;;;;;;10.08;36.67;101004.00;5588933;31;34450;-56
2023/03/16 11:07:49;;;;;;;4.95;3.42;;;;;;;10.53;40.98;101002.59;5582163;31;33295;-56
2023/03/16 11:10:57;;;;;;;6.53;3.30;;;;;;;10.08;35.77;101012.03;5569115;32;34446;-56
2023/03/16 11:14:03;;;;;;;9.38;3.60;;;;;;;10.13;34.96;101006.69;5569529;32;33637;-56
2023/03/16 11:17:11;;;;;;;7.10;3.92;;;;;;;10.07;32.30;101002.41;5569331;32;33692;-56
2023/03/16 11:20:25;;;;;;;6.47;3.83;;;;;;;9.93;35.85;100995.88;5568884;32;33748;-56
2023/03/16 11:23:32;;;;;;;9.13;4.15;;;;;;;9.77;33.36;100997.69;5569270;32;33646;-56
2023/03/16 11:26:38;;;;;;;6.72;3.42;;;;;;;9.81;33.40;100999.59;5569018;32;33638;-56
2023/03/16 11:29:52;;;;;;;7.00;3.40;;;;;;;10.06;34.03;100987.38;5568895;32;33199;-56
2023/03/16 11:32:55;;;;;;;6.93;3.85;;;;;;;10.34;40.17;100991.53;5568922;32;34407;-56
2023/03/16 11:36:06;;;;;;;8.77;3.65;;;;;;;10.11;34.01;100985.53;5568222;32;33752;-55
2023/03/16 11:39:41;;;;;;;5.93;3.72;;;;;;;10.02;35.98;100979.06;5567244;32;34225;-55
2023/03/16 11:42:57;;;;;;;9.43;4.37;;;;;;;10.27;47.60;100975.72;5563999;32;34467;-56
2023/03/16 11:46:37;;;;;;;11.48;3.53;;;;;;;10.56;33.32;100978.72;5567556;32;33328;-56
2023/03/16 11:49:40;;;;;;;5.97;3.17;;;;;;;10.28;32.14;100969.28;5568308;32;33159;-56
2023/03/16 11:53:03;;;;;;;4.97;3.20;;;;;;;10.36;31.32;100959.91;5568752;32;34322;-56
2023/03/16 11:56:30;;;;;;;5.55;3.03;;;;;;;10.85;37.28;100972.84;5568028;32;33243;-56
2023/03/16 11:59:40;;;;;;;6.60;2.90;;;;;;;10.99;33.81;100968.59;5565281;32;34392;-56
2023/03/16 12:03:31;;;;;;;6.10;3.00;;;;;;;10.56;34.23;100977.91;5567535;32;35470;-56
2023/03/16 12:06:53;;;;;;;4.45;2.80;;;;;;;10.84;33.67;100965.09;5566155;32;33704;-56
2023/03/16 12:10:12;;;;;;;7.62;3.10;;;;;;;11.15;50.09;100955.94;5564465;32;33686;-56
2023/03/16 12:13:55;;;;;;;7.20;3.67;;;;;;;11.17;37.33;100953.81;5560164;32;33756;-56
2023/03/16 12:17:18;;;;;;;6.15;2.97;;;;;;;11.26;45.13;100962.94;5532538;32;33751;-56
2023/03/16 12:20:30;;;;;;;5.93;2.95;;;;;;;10.85;36.02;100955.97;5552641;32;34469;-56
2023/03/16 12:23:48;;;;;;;6.32;3.30;;;;;;;10.97;32.60;100956.50;5555179;32;33727;-56
2023/03/16 12:26:52;;;;;;;4.90;2.80;;;;;;;10.97;37.40;100964.56;5561748;32;33707;-56
2023/03/16 12:30:00;;;;;;;11.00;2.95;;;;;;;10.73;33.81;100954.34;5560035;32;34624;-56
2023/03/16 12:33:12;;;;;;;5.70;2.22;;;;;;;10.90;29.46;100962.16;5557880;32;34386;-56
2023/03/16 12:36:37;;;;;;;6.82;2.85;;;;;;;10.71;29.04;100953.00;5548200;32;33355;-56
2023/03/16 12:40:05;;;;;;;7.00;2.95;;;;;;;11.04;33.53;100957.03;5558390;32;34310;-56
2023/03/16 12:43:35;;;;;;;4.03;2.33;;;;;;;11.20;37.14;100958.66;5565311;32;34466;-56
2023/03/16 12:47:08;;;;;;;3.37;2.35;;;;;;;11.40;39.49;100957.81;5566455;32;33747;-56
2023/03/16 12:50:14;;;;;;;4.18;2.37;;;;;;;11.61;49.60;100955.06;5562879;32;33695;-56
2023/03/16 12:53:52;;;;;;;3.78;2.00;;;;;;;11.47;39.86;100961.00;5565384;32;34326;-56
2023/03/16 12:57:08;;;;;;;3.80;2.03;;;;;;;11.75;31.60;100956.09;5548685;32;33817;-56
2023/03/16 13:00:13;;;;;;;3.85;2.03;;;;;;;11.25;26.75;100950.56;5565764;32;33562;-56
2023/03/16 13:03:20;;;;;;;2.70;1.87;;;;;;;11.14;27.62;100950.88;5559450;32;34357;-56
2023/03/16 13:06:23;;;;;;;4.25;2.10;;;;;;;11.31;39.77;100946.00;5566614;32;33676;-56
2023/03/16 13:09:30;;;;;;;5.37;2.53;;;;;;;11.31;43.75;100945.22;5566686;32;33798;-56
2023/03/16 13:12:37;;;;;;;4.25;1.98;;;;;;;11.41;27.50;100956.72;5567516;32;33760;-56
2023/03/16 13:15:39;;;;;;;6.22;2.60;;;;;;;11.15;25.58;100949.78;5565746;32;34423;-56
2023/03/16 13:18:43;;;;;;;4.47;2.15;;;;;;;11.13;27.06;100955.44;5567409;32;33680;-56
2023/03/16 13:21:46;;;;;;;4.62;2.20;;;;;;;10.84;26.55;100949.78;5568213;32;33819;-56
2023/03/16 13:24:58;;;;;;;4.05;2.00;;;;;;;10.94;27.38;100943.62;5560615;32;34628;-56
2023/03/16 13:28:01;;;;;;;5.40;2.25;;;;;;;10.78;26.83;100940.94;5568568;32;34120;-56
2023/03/16 13:31:23;;;;;;;4.10;2.65;;;;;;;10.79;27.05;100941.75;5557171;32;34397;-56
2023/03/16 13:34:29;;;;;;;2.72;1.70;;;;;;;10.75;26.69;100954.06;5568888;32;33407;-56
2023/03/16 13:37:31;;;;;;;4.97;1.87;;;;;;;10.79;29.35;100945.25;5567968;32;33643;-56
2023/03/16 13:40:36;;;;;;;3.87;1.67;;;;;;;11.10;40.76;100958.66;5569977;32;33613;-56
2023/03/16 13:43:42;;;;;;;4.05;2.17;;;;;;;11.33;34.84;100956.50;5569775;32;34332;-56
2023/03/16 13:46:48;;;;;;;4.70;1.92;;;;;;;11.49;34.45;100958.06;5569991;32;33741;-56
2023/03/16 13:49:56;;;;;;;3.33;1.77;;;;;;;11.25;28.44;100955.94;5569732;32;33678;-56
2023/03/16 13:53:02;;;;;;;4.10;2.00;;;;;;;11.41;42.55;100953.25;5569964;32;33793;-56
2023/03/16 13:56:06;;;;;;;4.12;2.37;;;;;;;11.31;27.69;100946.00;5569608;32;34099;-56
2023/03/16 13:59:09;;;;;;;3.58;1.90;;;;;;;11.28;28.32;100951.91;5569328;32;34363;-56
2023/03/16 14:02:21;;;;;;;4.03;1.92;;;;;;;11.43;45.48;100943.06;5565912;32;32355;-56
2023/03/16 14:05:30;;;;;;;5.30;2.00;;;;;;;11.05;24.15;100953.28;5569054;32;32397;-56
2023/03/16 14:08:33;;;;;;;4.12;1.90;;;;;;;11.29;32.47;100948.97;5558126;32;33875;-56
2023/03/16 14:11:36;;;;;;;5.07;1.98;;;;;;;11.22;27.21;100939.56;5554260;32;33765;-56
2023/03/16 14:14:40;;;;;;;4.40;1.80;;;;;;;11.32;26.35;100944.12;5570148;31;33760;-56
2023/03/16 14:17:42;;;;;;;6.25;2.05;;;;;;;11.40;27.27;100957.81;5569854;32;34469;-56
2023/03/16 14:20:45;;;;;;;3.33;2.28;;;;;;;11.47;31.71;100952.16;5570128;32;34379;-56
2023/03/16 14:24:01;;;;;;;3.72;1.58;;;;;;;11.32;28.68;100949.50;5569158;32;33580;-56
2023/03/16 14:27:17;;;;;;;3.70;2.37;;;;;;;11.48;27.41;100959.13;5569565;32;33710;-56
2023/03/16 14:30:24;;;;;;;5.37;2.10;;;;;;;11.27;24.42;100951.13;5569569;32;33437;-56
2023/03/16 14:33:30;;;;;;;4.18;1.80;;;;;;;11.05;33.56;100959.44;5566368;32;33740;-56
2023/03/16 14:36:37;;;;;;;4.20;2.15;;;;;;;11.15;25.52;100963.19;5569830;32;33965;-56
2023/03/16 14:39:40;;;;;;;4.72;1.85;;;;;;;11.38;30.92;100972.56;5566810;32;34075;-56
2023/03/16 14:42:43;;;;;;;4.25;1.90;;;;;;;11.26;24.68;100954.09;5567466;32;34173;-56
2023/03/16 14:45:45;;;;;;;3.33;2.00;;;;;;;11.39;29.33;100971.50;5569750;32;34381;-56
2023/03/16 14:48:49;;;;;;;3.40;2.00;;;;;;;11.31;26.38;100966.69;5568231;32;33761;-56
2023/03/16 14:51:54;;;;;;;3.03;1.95;;;;;;;11.32;29.91;100976.34;5569771;32;34261;-56
2023/03/16 14:54:58;;;;;;;2.58;1.87;;;;;;;11.40;36.80;100965.06;5567713;32;33832;-56
2023/03/16 14:58:00;;;;;;;4.07;2.20;;;;;;;11.15;28.12;100972.06;5569241;32;34320;-56
2023/03/16 15:01:03;;;;;;;3.92;1.80;;;;;;;11.05;27.22;100972.84;5569865;32;33720;-56
2023/03/16 15:04:06;;;;;;;6.43;1.92;;;;;;;10.97;27.56;100981.47;5568491;32;34390;-55
2023/03/16 15:07:23;;;;;;;4.03;2.08;;;;;;;10.94;27.26;100978.50;5569468;32;33622;-56
2023/03/16 15:10:32;;;;;;;4.65;2.20;;;;;;;10.93;24.85;100977.72;5569368;32;33302;-56
2023/03/16 15:16:42;;;;;;;6.95;1.92;;;;;;;11.08;24.59;100979.56;5568658;32;33804;-56
2023/03/16 15:19:45;;;;;;;3.90;1.92;;;;;;;10.83;24.64;100972.34;5569610;32;33749;-56
2023/03/16 15:22:49;;;;;;;4.97;1.80;;;;;;;10.84;28.81;100981.19;5569406;32;33685;-56
2023/03/16 15:25:57;;;;;;;3.87;1.85;;;;;;;11.04;32.64;100975.81;5558552;32;33629;-56
2023/03/16 15:29:00;;;;;;;5.43;1.70;;;;;;;11.36;44.43;100980.13;5557454;32;34884;-56
2023/03/16 15:32:02;;;;;;;4.25;2.05;;;;;;;11.30;36.19;100976.63;5560494;32;33222;-56
2023/03/16 15:35:05;;;;;;;3.83;1.58;;;;;;;11.46;29.44;100983.59;5549960;32;34371;-56
2023/03/16 15:38:14;;;;;;;2.45;1.73;;;;;;;11.61;44.28;100984.62;5549842;32;34493;-56
2023/03/16 15:41:16;;;;;;;3.47;1.70;;;;;;;11.62;29.48;100983.53;5567905;32;33473;-56
2023/03/16 15:44:19;;;;;;;10.50;2.12;;;;;;;11.43;22.92;100988.69;5559377;32;33932;-56
2023/03/16 15:47:22;;;;;;;3.67;1.77;;;;;;;11.55;31.06;100996.44;5561936;32;33831;-56
2023/03/16 15:50:25;;;;;;;6.80;2.25;;;;;;;11.31;24.60;100996.22;5569137;32;33654;-56
2023/03/16 15:53:41;;;;;;;4.57;2.22;;;;;;;11.37;25.77;101005.88;5568398;32;33968;-56
2023/03/16 15:56:45;;;;;;;6.30;2.08;;;;;;;11.28;26.15;101009.09;5567988;32;33731;-56
2023/03/16 15:59:56;;;;;;;3.80;2.10;;;;;;;11.17;24.98;101010.16;5569193;32;34390;-56
2023/03/16 16:03:00;;;;;;;3.30;2.00;;;;;;;11.12;27.82;101009.34;5569195;32;33992;-56
2023/03/16 16:06:08;;;;;;;4.07;2.08;;;;;;;10.91;25.21;101019.28;5569299;32;33755;-56
2023/03/16 16:09:10;;;;;;;3.83;2.00;;;;;;;10.85;25.65;101018.44;5569057;31;33377;-56
2023/03/16 16:12:13;;;;;;;4.37;2.28;;;;;;;11.07;29.77;101020.09;5569006;32;33770;-56
2023/03/16 16:15:37;;;;;;;3.95;2.08;;;;;;;10.97;29.56;101031.62;5569412;32;33695;-56
2023/03/16 16:18:39;;;;;;;4.47;2.30;;;;;;;10.94;26.49;101024.09;5549777;32;34344;-56
2023/03/16 16:21:42;;;;;;;3.75;2.25;;;;;;;10.92;28.33;101031.59;5549704;32;34314;-56
2023/03/16 16:24:45;;;;;;;8.13;2.33;;;;;;;10.91;26.83;101038.06;5549788;32;34480;-56
2023/03/16 16:27:48;;;;;;;2.67;1.80;;;;;;;10.95;34.45;101041.81;5549792;32;34326;-56
2023/03/16 16:30:51;;;;;;;4.37;1.77;;;;;;;11.21;31.75;101054.19;5549489;32;33726;-56
2023/03/16 16:33:54;;;;;;;3.47;1.80;;;;;;;11.28;28.49;101054.72;5549738;32;33783;-56
2023/03/16 16:36:57;;;;;;;3.37;1.60;;;;;;;11.00;26.03;101057.91;5549361;32;33756;-56
2023/03/16 16:39:59;;;;;;;2.90;1.95;;;;;;;10.78;24.19;101061.63;5549466;32;33837;-56
